createdAt,value
2022-09-06T00:00:33.385Z,4.55
2022-09-06T00:03:00.416Z,4.05
2022-09-06T00:05:28.562Z,4.57
2022-09-06T00:07:55.159Z,4.07
2022-09-06T00:10:21.534Z,4.40
2022-09-06T00:12:48.097Z,4.40
2022-09-06T00:15:14.495Z,3.83
2022-09-06T00:17:40.968Z,4.55
2022-09-06T00:20:07.556Z,5.03
2022-09-06T00:22:34.159Z,4.43
2022-09-06T00:25:00.523Z,4.85
2022-09-06T00:27:26.975Z,5.57
2022-09-06T00:29:53.350Z,5.22
2022-09-06T00:32:19.742Z,5.00
2022-09-06T00:34:46.431Z,4.85
2022-09-06T00:37:12.853Z,4.78
2022-09-06T00:39:39.391Z,4.95
2022-09-06T00:42:10.615Z,5.15
2022-09-06T00:44:37.639Z,4.70
2022-09-06T00:47:04.794Z,5.25
2022-09-06T00:49:35.083Z,4.82
2022-09-06T00:52:05.117Z,4.93
2022-09-06T00:54:32.045Z,5.22
2022-09-06T00:56:59.604Z,5.45
2022-09-06T00:59:29.146Z,4.82
2022-09-06T01:01:55.803Z,5.03
2022-09-06T01:04:23.471Z,4.85
2022-09-06T01:07:10.843Z,4.85
2022-09-06T01:10:02.993Z,4.90
2022-09-06T01:12:41.689Z,4.63
2022-09-06T01:15:18.096Z,5.10
2022-09-06T01:17:50.550Z,5.75
2022-09-06T01:20:46.400Z,5.30
2022-09-06T01:23:45.096Z,4.85
2022-09-06T01:26:43.795Z,5.07
2022-09-06T01:29:23.293Z,6.10
2022-09-06T01:31:54.777Z,4.78
2022-09-06T01:34:50.928Z,5.00
2022-09-06T01:37:20.589Z,5.40
2022-09-06T01:39:47.440Z,5.27
2022-09-06T01:42:25.384Z,5.18
2022-09-06T01:44:57.240Z,5.13
2022-09-06T01:47:44.720Z,5.75
2022-09-06T01:50:18.654Z,5.70
2022-09-06T01:52:56.585Z,5.65
2022-09-06T01:55:49.126Z,5.70
2022-09-06T01:58:26.815Z,5.35
2022-09-06T02:01:20.875Z,4.78
2022-09-06T02:04:07.782Z,6.65
2022-09-06T02:06:42.457Z,5.25
2022-09-06T02:09:17.693Z,5.13
2022-09-06T02:11:50.534Z,5.60
2022-09-06T02:14:23.090Z,5.45
2022-09-06T02:16:53.728Z,5.35
2022-09-06T02:21:52.947Z,5.22
2022-09-06T02:24:26.172Z,4.90
2022-09-06T02:26:52.615Z,4.25
2022-09-06T02:29:19.127Z,3.85
2022-09-06T02:31:50.969Z,4.65
2022-09-06T02:34:19.349Z,5.15
2022-09-06T02:36:46.443Z,4.95
2022-09-06T02:39:13.668Z,4.45
2022-09-06T02:41:43.412Z,5.47
2022-09-06T02:44:09.855Z,5.50
2022-09-06T02:46:36.265Z,5.93
2022-09-06T02:49:02.765Z,5.25
2022-09-06T02:51:29.176Z,5.45
2022-09-06T02:53:55.557Z,6.00
2022-09-06T02:56:21.905Z,6.03
2022-09-06T02:58:48.395Z,6.20
2022-09-06T03:01:14.840Z,6.15
2022-09-06T03:03:41.463Z,6.85
2022-09-06T03:06:07.962Z,6.20
2022-09-06T03:08:34.435Z,6.10
2022-09-06T03:11:01.286Z,6.72
2022-09-06T03:13:28.191Z,7.20
2022-09-06T03:15:57.554Z,6.90
2022-09-06T03:18:25.159Z,6.88
2022-09-06T03:20:53.462Z,8.02
2022-09-06T03:23:21.092Z,7.55
2022-09-06T03:25:47.714Z,8.13
2022-09-06T03:28:14.130Z,7.28
2022-09-06T03:30:40.758Z,7.72
2022-09-06T03:33:07.247Z,6.20
2022-09-06T03:35:33.711Z,6.50
2022-09-06T03:38:01.488Z,7.03
2022-09-06T03:40:28.062Z,6.40
2022-09-06T03:42:54.627Z,6.53
2022-09-06T03:45:21.149Z,7.63
2022-09-06T03:47:47.515Z,7.75
2022-09-06T03:50:14.189Z,6.80
2022-09-06T03:52:40.654Z,8.13
2022-09-06T03:55:07.668Z,8.30
2022-09-06T03:57:34.215Z,7.68
2022-09-06T04:00:00.772Z,8.45
2022-09-06T04:02:27.522Z,7.40
2022-09-06T04:04:53.936Z,7.38
2022-09-06T04:07:20.300Z,7.13
2022-09-06T04:09:46.828Z,8.07
2022-09-06T04:12:13.165Z,7.07
2022-09-06T04:14:39.706Z,7.10
2022-09-06T04:17:06.159Z,7.22
2022-09-06T04:19:32.605Z,7.82
2022-09-06T04:21:58.997Z,7.40
2022-09-06T04:24:25.401Z,7.00
2022-09-06T04:26:51.728Z,7.32
2022-09-06T04:29:18.170Z,7.55
2022-09-06T04:31:44.589Z,6.57
2022-09-06T04:34:11.261Z,8.27
2022-09-06T04:36:37.785Z,8.95
2022-09-06T04:39:04.247Z,8.55
2022-09-06T04:41:32.027Z,9.80
2022-09-06T04:43:58.471Z,8.30
2022-09-06T04:46:27.417Z,8.23
2022-09-06T04:48:55.032Z,8.60
2022-09-06T04:51:22.589Z,8.88
2022-09-06T04:53:49.636Z,8.95
2022-09-06T04:56:24.474Z,9.55
2022-09-06T04:58:52.335Z,8.77
2022-09-06T05:01:19.004Z,8.75
2022-09-06T05:03:45.469Z,9.18
2022-09-06T05:06:19.036Z,9.38
2022-09-06T05:08:45.814Z,9.95
2022-09-06T05:11:12.561Z,8.48
2022-09-06T05:13:39.597Z,9.63
2022-09-06T05:16:07.759Z,8.57
2022-09-06T05:18:34.915Z,8.20
2022-09-06T05:21:01.485Z,8.10
2022-09-06T05:23:28.605Z,8.70
2022-09-06T05:25:55.348Z,8.27
2022-09-06T05:28:22.019Z,8.05
2022-09-06T05:30:48.552Z,8.60
2022-09-06T05:33:21.964Z,8.35
2022-09-06T05:35:48.720Z,9.20
2022-09-06T05:38:15.407Z,8.60
2022-09-06T05:40:41.931Z,9.80
2022-09-06T05:43:08.455Z,8.63
2022-09-06T05:45:34.971Z,8.75
2022-09-06T05:48:01.591Z,8.02
2022-09-06T05:50:28.093Z,8.00
2022-09-06T05:52:54.627Z,8.65
2022-09-06T05:55:21.276Z,8.38
2022-09-06T05:57:49.248Z,8.05
2022-09-06T06:00:15.805Z,7.28
2022-09-06T06:02:42.559Z,7.60
2022-09-06T06:05:09.144Z,7.90
2022-09-06T06:07:35.646Z,7.57
2022-09-06T06:10:02.053Z,8.07
2022-09-06T06:12:28.337Z,8.10
2022-09-06T06:14:54.705Z,8.02
2022-09-06T06:17:21.309Z,8.23
2022-09-06T06:19:48.039Z,8.40
2022-09-06T06:22:14.503Z,7.88
2022-09-06T06:24:40.991Z,7.82
2022-09-06T06:27:07.605Z,7.35
2022-09-06T06:29:34.012Z,8.05
2022-09-06T06:32:00.800Z,7.40
2022-09-06T06:34:28.150Z,7.88
2022-09-06T06:36:54.632Z,7.50
2022-09-06T06:39:21.012Z,8.80
2022-09-06T06:41:47.450Z,7.93
2022-09-06T06:44:13.904Z,8.63
2022-09-06T06:46:40.452Z,7.55
2022-09-06T06:49:06.902Z,7.95
2022-09-06T06:51:35.150Z,6.85
2022-09-06T06:54:01.685Z,6.95
2022-09-06T06:56:39.376Z,7.80
2022-09-06T06:59:07.070Z,7.90
2022-09-06T07:01:34.880Z,6.82
2022-09-06T07:04:01.525Z,6.88
2022-09-06T07:09:17.548Z,6.15
2022-09-06T07:11:44.219Z,6.30
2022-09-06T07:14:10.625Z,6.85
2022-09-06T07:16:37.142Z,6.63
2022-09-06T07:19:03.953Z,5.40
2022-09-06T07:21:37.903Z,6.70
2022-09-06T07:24:07.216Z,6.18
2022-09-06T07:26:35.470Z,5.80
2022-09-06T07:29:04.367Z,5.13
2022-09-06T07:34:17.646Z,5.25
2022-09-06T07:36:44.092Z,5.70
2022-09-06T07:39:10.592Z,5.25
2022-09-06T07:41:37.108Z,5.38
2022-09-06T07:44:03.666Z,5.25
2022-09-06T07:46:30.119Z,4.40
2022-09-06T07:48:58.999Z,5.47
2022-09-06T07:51:25.500Z,5.05
2022-09-06T07:54:06.916Z,4.95
2022-09-06T07:56:39.709Z,7.13
2022-09-06T07:59:06.204Z,7.03
2022-09-06T08:01:38.206Z,7.38
2022-09-06T08:04:13.750Z,8.13
2022-09-06T08:09:32.442Z,7.03
2022-09-06T08:11:59.092Z,7.05
2022-09-06T08:14:25.460Z,6.53
2022-09-06T08:16:51.805Z,6.75
2022-09-06T08:19:18.214Z,5.85
2022-09-06T08:21:44.590Z,5.10
2022-09-06T08:24:11.118Z,5.30
2022-09-06T08:26:38.390Z,5.30
2022-09-06T08:29:06.708Z,5.88
2022-09-06T08:31:35.211Z,6.65
2022-09-06T08:34:02.508Z,5.88
2022-09-06T08:36:29.774Z,5.93
2022-09-06T08:39:01.686Z,5.60
2022-09-06T08:41:35.753Z,5.22
2022-09-06T08:49:24.416Z,4.93
2022-09-06T08:52:12.896Z,4.57
2022-09-06T08:54:59.039Z,4.07
2022-09-06T08:57:32.616Z,4.20
2022-09-06T09:00:03.427Z,4.15
2022-09-06T09:02:44.038Z,4.40
2022-09-06T09:05:21.839Z,4.40
2022-09-06T09:08:23.791Z,4.18
2022-09-06T09:10:54.920Z,4.82
2022-09-06T09:13:30.729Z,4.63
2022-09-06T09:15:57.417Z,4.20
2022-09-06T09:18:28.396Z,4.55
2022-09-06T09:20:55.114Z,4.40
2022-09-06T09:23:22.176Z,3.78
2022-09-06T09:25:50.457Z,4.50
2022-09-06T09:28:19.717Z,5.07
2022-09-06T09:30:52.142Z,4.82
2022-09-06T09:33:30.377Z,3.70
2022-09-06T09:36:00.980Z,4.32
2022-09-06T09:38:35.043Z,4.93
2022-09-06T09:41:06.969Z,4.78
2022-09-06T09:43:37.621Z,4.00
2022-09-06T09:46:28.866Z,4.20
2022-09-06T09:49:10.426Z,4.53
2022-09-06T09:52:03.598Z,4.20
2022-09-06T09:54:31.477Z,3.80
2022-09-06T09:56:58.377Z,3.75
2022-09-06T09:59:32.266Z,3.95
2022-09-06T10:02:01.294Z,4.15
2022-09-06T10:04:44.806Z,4.10
2022-09-06T10:07:16.494Z,3.90
2022-09-06T10:09:46.955Z,4.45
2022-09-06T10:12:17.334Z,8.43
2022-09-06T10:14:51.441Z,6.80
2022-09-06T10:17:29.686Z,4.45
2022-09-06T10:19:56.809Z,4.63
2022-09-06T10:22:28.596Z,3.53
2022-09-06T10:25:13.008Z,3.83
2022-09-06T10:28:10.404Z,4.32
2022-09-06T10:30:47.772Z,4.20
2022-09-06T10:33:27.676Z,3.80
2022-09-06T10:35:58.046Z,3.70
2022-09-06T10:38:51.297Z,3.88
2022-09-06T10:41:33.741Z,3.85
2022-09-06T10:44:17.197Z,3.50
2022-09-06T10:46:45.231Z,5.20
2022-09-06T10:49:19.488Z,3.72
2022-09-06T10:52:00.270Z,3.38
2022-09-06T10:54:29.965Z,6.03
2022-09-06T10:57:02.248Z,3.90
2022-09-06T10:59:42.903Z,3.28
2022-09-06T11:02:12.561Z,3.70
2022-09-06T11:07:29.899Z,3.80
2022-09-06T11:10:06.478Z,3.55
2022-09-06T11:12:41.179Z,3.40
2022-09-06T11:15:12.016Z,3.30
2022-09-06T11:17:46.180Z,2.92
2022-09-06T11:20:27.497Z,3.22
2022-09-06T11:23:35.316Z,3.67
2022-09-06T11:26:15.621Z,2.95
2022-09-06T11:28:54.858Z,3.08
2022-09-06T11:34:26.384Z,3.83
2022-09-06T11:36:56.508Z,3.30
2022-09-06T11:42:40.872Z,3.13
2022-09-06T11:45:10.361Z,3.75
2022-09-06T11:47:40.854Z,3.40
2022-09-06T11:50:22.528Z,3.63
2022-09-06T11:53:15.178Z,3.50
2022-09-06T11:55:46.194Z,3.30
2022-09-06T11:58:53.425Z,3.25
2022-09-06T12:01:19.747Z,3.05
2022-09-06T12:06:37.293Z,3.42
2022-09-06T12:09:28.808Z,3.40
2022-09-06T12:11:56.192Z,4.03
2022-09-06T12:14:40.664Z,3.92
2022-09-06T12:17:07.181Z,4.22
2022-09-06T12:19:47.519Z,3.47
2022-09-06T12:22:29.000Z,3.30
2022-09-06T12:25:02.474Z,3.22
2022-09-06T12:27:35.002Z,3.25
2022-09-06T12:30:05.857Z,3.90
2022-09-06T12:32:37.815Z,3.63
2022-09-06T12:38:11.534Z,3.42
2022-09-06T12:40:44.014Z,3.40
2022-09-06T12:43:13.316Z,3.67
2022-09-06T12:45:48.820Z,3.15
2022-09-06T12:48:30.629Z,3.33
2022-09-06T12:51:09.331Z,3.30
2022-09-06T12:53:35.786Z,3.22
2022-09-06T12:56:07.702Z,2.85
2022-09-06T12:58:34.754Z,3.25
2022-09-06T13:01:11.178Z,2.67
2022-09-06T13:03:45.764Z,2.85
2022-09-06T13:06:26.674Z,3.78
2022-09-06T13:08:56.709Z,3.17
2022-09-06T13:11:32.566Z,3.22
2022-09-06T13:13:59.758Z,3.40
2022-09-06T13:16:30.012Z,3.20
2022-09-06T13:19:17.741Z,2.78
2022-09-06T13:21:45.751Z,2.70
2022-09-06T13:24:46.605Z,3.03
2022-09-06T13:27:23.706Z,2.78
2022-09-06T13:30:07.087Z,3.05
2022-09-06T13:32:34.478Z,3.25
2022-09-06T13:35:01.447Z,2.60
2022-09-06T13:37:30.459Z,2.53
2022-09-06T13:39:57.990Z,3.50
2022-09-06T13:42:27.755Z,2.80
2022-09-06T13:44:56.735Z,2.70
2022-09-06T13:47:29.159Z,3.42
2022-09-06T13:49:55.689Z,3.22
2022-09-06T13:52:22.139Z,2.60
2022-09-06T13:54:48.568Z,2.70
2022-09-06T13:57:15.055Z,2.65
2022-09-06T13:59:41.560Z,2.15
2022-09-06T14:02:10.019Z,2.55
2022-09-06T14:04:36.709Z,2.08
2022-09-06T14:07:04.273Z,2.60
2022-09-06T14:09:30.987Z,2.53
2022-09-06T14:11:57.687Z,2.45
2022-09-06T14:14:24.659Z,2.50
2022-09-06T14:16:50.992Z,2.28
2022-09-06T14:19:17.357Z,2.90
2022-09-06T14:21:43.744Z,3.03
2022-09-06T14:24:10.150Z,2.78
2022-09-06T14:26:37.257Z,2.90
2022-09-06T14:29:03.807Z,2.60
2022-09-06T14:31:30.902Z,2.90
2022-09-06T14:33:57.815Z,2.30
2022-09-06T14:36:27.165Z,3.13
2022-09-06T14:38:56.361Z,2.90
2022-09-06T14:41:22.807Z,2.90
2022-09-06T14:43:51.389Z,2.70
2022-09-06T14:46:19.057Z,2.88
2022-09-06T14:48:46.235Z,2.53
2022-09-06T14:51:14.725Z,2.92
2022-09-06T14:53:42.675Z,2.88
2022-09-06T14:56:10.363Z,3.15
2022-09-06T14:58:39.230Z,3.03
2022-09-06T15:01:12.399Z,2.78
2022-09-06T15:03:40.468Z,2.80
2022-09-06T15:06:07.315Z,2.55
2022-09-06T15:08:33.782Z,2.63
2022-09-06T15:11:00.491Z,2.80
2022-09-06T15:13:27.629Z,3.05
2022-09-06T15:15:55.258Z,3.20
2022-09-06T15:18:22.648Z,3.40
2022-09-06T15:20:50.471Z,3.08
2022-09-06T15:23:25.465Z,2.90
2022-09-06T15:25:52.923Z,2.80
2022-09-06T15:28:19.923Z,3.05
2022-09-06T15:30:47.880Z,2.90
2022-09-06T15:33:14.714Z,3.08
2022-09-06T15:35:42.598Z,2.92
2022-09-06T15:38:10.214Z,2.53
2022-09-06T15:40:36.779Z,3.03
2022-09-06T15:43:03.628Z,2.80
2022-09-06T15:45:30.331Z,2.80
2022-09-06T15:47:56.882Z,3.08
2022-09-06T15:50:47.515Z,2.80
2022-09-06T15:53:10.124Z,2.20
2022-09-06T15:55:39.875Z,2.30
2022-09-06T15:58:08.003Z,2.45
2022-09-06T16:00:34.437Z,3.15
2022-09-06T16:03:00.977Z,2.60
2022-09-06T16:08:13.743Z,2.70
2022-09-06T16:10:40.248Z,2.63
2022-09-06T16:13:06.699Z,3.15
2022-09-06T16:15:33.213Z,3.20
2022-09-06T16:17:59.573Z,3.03
2022-09-06T16:20:27.191Z,2.58
2022-09-06T16:22:54.269Z,2.95
2022-09-06T16:25:20.592Z,2.60
2022-09-06T16:27:46.940Z,2.75
2022-09-06T16:30:13.607Z,2.33
2022-09-06T16:32:40.336Z,2.65
2022-09-06T16:35:07.182Z,2.83
2022-09-06T16:37:33.722Z,2.63
2022-09-06T16:40:00.375Z,2.67
2022-09-06T16:42:26.844Z,2.83
2022-09-06T16:44:53.354Z,2.80
2022-09-06T16:47:20.101Z,2.95
2022-09-06T16:49:47.077Z,3.30
2022-09-06T16:52:13.484Z,3.00
2022-09-06T16:54:39.861Z,3.20
2022-09-06T16:57:06.280Z,2.50
2022-09-06T16:59:32.630Z,2.85
2022-09-06T17:01:59.163Z,3.47
2022-09-06T17:04:25.787Z,2.85
2022-09-06T17:06:52.163Z,2.20
2022-09-06T17:09:19.336Z,2.30
2022-09-06T17:11:47.042Z,2.20
2022-09-06T17:14:13.496Z,2.22
2022-09-06T17:16:40.085Z,2.55
2022-09-06T17:19:07.496Z,2.10
2022-09-06T17:21:34.421Z,2.15
2022-09-06T17:24:01.065Z,2.42
2022-09-06T17:26:27.452Z,2.15
2022-09-06T17:28:53.865Z,2.60
2022-09-06T17:31:25.560Z,2.33
2022-09-06T17:33:52.819Z,1.90
2022-09-06T17:36:31.213Z,2.38
2022-09-06T17:39:02.929Z,2.30
2022-09-06T17:41:34.602Z,2.63
2022-09-06T17:44:01.004Z,3.03
2022-09-06T17:46:29.111Z,2.03
2022-09-06T17:48:56.746Z,2.60
2022-09-06T17:51:25.883Z,2.22
2022-09-06T17:53:53.466Z,2.30
2022-09-06T17:56:20.383Z,2.83
2022-09-06T17:58:59.153Z,2.60
2022-09-06T18:01:29.714Z,2.85
2022-09-06T18:03:59.491Z,2.35
2022-09-06T18:06:28.695Z,2.30
2022-09-06T18:08:57.127Z,2.20
2022-09-06T18:11:29.574Z,2.95
2022-09-06T18:13:58.704Z,2.88
2022-09-06T18:16:26.017Z,3.20
2022-09-06T18:18:54.634Z,3.00
2022-09-06T18:21:22.568Z,3.30
2022-09-06T18:23:48.936Z,4.47
2022-09-06T18:26:15.693Z,4.13
2022-09-06T18:28:42.201Z,4.75
2022-09-06T18:31:14.470Z,3.75
2022-09-06T18:33:42.199Z,3.60
2022-09-06T18:36:10.243Z,3.85
2022-09-06T18:38:38.585Z,3.78
2022-09-06T18:41:07.305Z,3.47
2022-09-06T18:43:36.582Z,3.90
2022-09-06T18:46:05.584Z,3.88
2022-09-06T18:48:32.798Z,3.72
2022-09-06T18:51:13.927Z,4.28
2022-09-06T18:53:44.648Z,4.55
2022-09-06T18:56:12.844Z,3.60
2022-09-06T18:58:40.019Z,3.70
2022-09-06T19:01:15.018Z,3.85
2022-09-06T19:03:42.727Z,3.90
2022-09-06T19:06:11.236Z,4.45
2022-09-06T19:08:38.666Z,3.70
2022-09-06T19:11:11.885Z,3.53
2022-09-06T19:13:40.423Z,3.67
2022-09-06T19:16:07.993Z,3.63
2022-09-06T19:18:35.402Z,4.68
2022-09-06T19:21:07.806Z,4.13
2022-09-06T19:23:36.789Z,4.65
2022-09-06T19:26:21.427Z,3.60
2022-09-06T19:28:51.912Z,3.92
2022-09-06T19:33:47.446Z,4.18
2022-09-06T19:36:15.039Z,3.80
2022-09-06T19:39:01.946Z,4.55
2022-09-06T19:41:33.869Z,4.30
2022-09-06T19:44:00.239Z,3.72
2022-09-06T19:46:27.368Z,4.10
2022-09-06T19:48:55.263Z,4.55
2022-09-06T19:51:22.229Z,3.88
2022-09-06T19:53:53.859Z,4.10
2022-09-06T19:56:26.342Z,4.60
2022-09-06T19:58:55.042Z,4.30
2022-09-06T20:01:21.995Z,4.00
2022-09-06T20:03:48.842Z,4.57
2022-09-06T20:06:15.596Z,4.38
2022-09-06T20:08:42.166Z,4.18
2022-09-06T20:11:10.679Z,4.25
2022-09-06T20:13:38.316Z,4.20
2022-09-06T20:16:06.824Z,4.00
2022-09-06T20:18:33.972Z,4.30
2022-09-06T20:21:00.395Z,4.68
2022-09-06T20:23:31.239Z,4.68
2022-09-06T20:26:12.025Z,4.60
2022-09-06T20:28:38.406Z,5.43
2022-09-06T20:31:16.771Z,4.57
2022-09-06T20:33:49.169Z,4.22
2022-09-06T20:36:16.248Z,4.80
2022-09-06T20:38:44.113Z,4.93
2022-09-06T20:41:14.853Z,4.70
2022-09-06T20:43:42.214Z,4.40
2022-09-06T20:46:17.459Z,5.38
2022-09-06T20:48:45.471Z,4.68
2022-09-06T20:51:18.011Z,5.20
2022-09-06T20:53:51.238Z,5.00
2022-09-06T20:56:20.152Z,4.90
2022-09-06T20:59:00.259Z,4.63
2022-09-06T21:01:29.300Z,4.65
2022-09-06T21:03:58.307Z,4.43
2022-09-06T21:06:26.339Z,4.30
2022-09-06T21:08:53.005Z,4.40
2022-09-06T21:11:20.227Z,4.65
2022-09-06T21:13:51.780Z,4.75
2022-09-06T21:16:24.279Z,4.53
2022-09-06T21:18:53.422Z,5.40
2022-09-06T21:21:20.489Z,5.20
2022-09-06T21:23:46.877Z,4.60
2022-09-06T21:26:13.629Z,4.38
2022-09-06T21:28:41.020Z,4.57
2022-09-06T21:31:12.942Z,5.63
2022-09-06T21:33:41.761Z,6.78
2022-09-06T21:36:11.001Z,5.15
2022-09-06T21:38:39.985Z,5.75
2022-09-06T21:41:08.146Z,4.88
2022-09-06T21:43:35.315Z,5.20
2022-09-06T21:46:03.368Z,5.32
2022-09-06T21:48:29.971Z,5.15
2022-09-06T21:50:56.447Z,5.13
2022-09-06T21:53:22.845Z,4.30
2022-09-06T21:55:49.785Z,5.50
2022-09-06T21:58:16.250Z,4.90
2022-09-06T22:00:43.327Z,4.90
2022-09-06T22:03:09.915Z,4.90
2022-09-06T22:05:36.285Z,4.32
2022-09-06T22:08:03.104Z,5.13
2022-09-06T22:10:29.615Z,4.53
2022-09-06T22:12:55.966Z,4.80
2022-09-06T22:15:22.425Z,5.25
2022-09-06T22:17:49.113Z,4.85
2022-09-06T22:20:15.756Z,4.90
2022-09-06T22:22:42.315Z,5.22
2022-09-06T22:25:09.005Z,5.20
2022-09-06T22:27:35.369Z,4.32
2022-09-06T22:30:02.038Z,5.13
2022-09-06T22:32:28.689Z,5.85
2022-09-06T22:34:55.038Z,5.50
2022-09-06T22:37:21.481Z,5.50
2022-09-06T22:39:48.075Z,5.80
2022-09-06T22:42:14.565Z,5.63
2022-09-06T22:44:41.283Z,6.22
2022-09-06T22:47:07.755Z,5.25
2022-09-06T22:49:34.361Z,5.53
2022-09-06T22:52:00.828Z,5.35
2022-09-06T22:54:27.289Z,4.75
2022-09-06T22:56:53.795Z,5.55
2022-09-06T22:59:20.174Z,5.53
2022-09-06T23:01:46.530Z,5.03
2022-09-06T23:04:13.240Z,4.97
2022-09-06T23:06:39.698Z,5.97
2022-09-06T23:09:06.151Z,5.70
2022-09-06T23:11:32.765Z,5.50
2022-09-06T23:14:00.111Z,5.40
2022-09-06T23:16:28.173Z,5.68
2022-09-06T23:18:55.132Z,5.80
2022-09-06T23:21:23.607Z,5.88
2022-09-06T23:23:51.916Z,5.63
2022-09-06T23:26:22.574Z,5.88
2022-09-06T23:28:52.789Z,5.50
2022-09-06T23:31:19.231Z,5.93
2022-09-06T23:33:45.669Z,5.47
2022-09-06T23:36:13.641Z,5.57
2022-09-06T23:38:44.828Z,5.30
2022-09-06T23:41:12.135Z,4.70
2022-09-06T23:43:40.311Z,5.20
2022-09-06T23:46:09.692Z,5.32
2022-09-06T23:48:36.352Z,5.00
2022-09-06T23:51:03.171Z,5.63
2022-09-06T23:53:29.672Z,5.15
2022-09-06T23:55:56.241Z,5.25
2022-09-06T23:58:22.994Z,5.53
